Time;durP1;ratioP1;P1;durP2;ratioP2;P2;SDS_P1;SDS_P2;PMS_P1;PMS_P2;Temp;Humidity;BMP_temperature;BMP_pressure;BME280_temperature;BME280_humidity;BME280_pressure;Samples;Min_cycle;Max_cycle;Signal;HPM_P1;HPM_P2
2020/12/08 00:01:37;;;;;;;98.13;51.92;;;;;;;-0.93;100.00;97418.44;5054181;28;20063;-70
2020/12/08 00:04:03;;;;;;;100.65;52.92;;;;;;;-0.83;100.00;97411.22;5053671;28;20052;-70
2020/12/08 00:06:29;;;;;;;91.45;47.88;;;;;;;-0.91;100.00;97418.38;5053533;28;20131;-76
2020/12/08 00:08:55;;;;;;;97.97;51.78;;;;;;;-0.85;100.00;97407.88;5053382;28;20105;-69
2020/12/08 00:11:21;;;;;;;100.97;49.42;;;;;;;-0.94;100.00;97409.03;5054977;28;20057;-70
2020/12/08 00:13:47;;;;;;;85.72;46.85;;;;;;;-0.88;100.00;97412.28;5054210;28;20049;-70
2020/12/08 00:16:13;;;;;;;95.70;50.50;;;;;;;-1.03;100.00;97403.41;5054905;28;20048;-71
2020/12/08 00:18:39;;;;;;;95.95;49.70;;;;;;;-0.95;100.00;97402.22;5053596;28;20040;-68
2020/12/08 00:21:06;;;;;;;111.68;53.97;;;;;;;-1.13;100.00;97392.56;5053909;28;20052;-70
2020/12/08 00:23:32;;;;;;;124.85;58.63;;;;;;;-0.93;100.00;97397.88;5053939;28;20505;-74
2020/12/08 00:25:58;;;;;;;89.80;47.63;;;;;;;-0.81;100.00;97399.13;5054521;28;20076;-69
2020/12/08 00:28:24;;;;;;;87.88;46.42;;;;;;;-0.94;100.00;97400.50;5054483;28;20439;-69
2020/12/08 00:30:50;;;;;;;106.88;51.92;;;;;;;-0.95;100.00;97401.38;5054095;28;20088;-72
2020/12/08 00:33:17;;;;;;;102.05;50.85;;;;;;;-0.87;100.00;97403.66;5054211;28;20045;-69
2020/12/08 00:35:42;;;;;;;108.40;52.83;;;;;;;-0.83;100.00;97400.94;5053822;28;20040;-69
2020/12/08 00:38:08;;;;;;;111.03;54.67;;;;;;;-0.92;100.00;97391.81;5054358;28;20095;-69
2020/12/08 00:40:34;;;;;;;95.40;49.58;;;;;;;-0.91;100.00;97395.22;5053643;28;20496;-73
2020/12/08 00:43:00;;;;;;;92.75;47.25;;;;;;;-0.91;100.00;97400.38;5053853;28;20076;-69
2020/12/08 00:45:26;;;;;;;107.45;51.85;;;;;;;-0.88;100.00;97392.56;5053907;28;20484;-70
2020/12/08 00:47:52;;;;;;;97.95;49.88;;;;;;;-0.86;100.00;97387.34;5053454;28;20097;-71
2020/12/08 00:50:17;;;;;;;86.70;45.53;;;;;;;-0.79;100.00;97394.78;5053503;28;20055;-69
2020/12/08 00:52:43;;;;;;;102.20;52.22;;;;;;;-0.83;100.00;97394.97;5053360;28;20065;-70
2020/12/08 00:55:09;;;;;;;88.75;47.50;;;;;;;-0.86;100.00;97389.91;5054001;28;20051;-69
2020/12/08 00:57:35;;;;;;;94.38;46.65;;;;;;;-0.88;100.00;97389.97;5053361;28;20060;-72
2020/12/08 01:00:01;;;;;;;94.40;46.33;;;;;;;-0.80;100.00;97405.13;5053788;28;20345;-69
2020/12/08 01:02:27;;;;;;;89.72;45.70;;;;;;;-0.70;100.00;97393.59;5053546;28;20045;-69
2020/12/08 01:04:52;;;;;;;90.78;47.75;;;;;;;-0.65;100.00;97383.97;5052197;28;20174;-69
2020/12/08 01:07:18;;;;;;;87.30;44.22;;;;;;;-0.59;98.78;97388.03;5053366;28;20069;-69
2020/12/08 01:09:44;;;;;;;86.53;45.65;;;;;;;-0.69;100.00;97391.88;5053369;28;20045;-69
2020/12/08 01:12:10;;;;;;;105.43;49.80;;;;;;;-0.79;100.00;97381.91;5053329;28;20480;-70
2020/12/08 01:14:36;;;;;;;88.57;46.17;;;;;;;-0.78;100.00;97378.44;5052862;28;20049;-72
2020/12/08 01:17:04;;;;;;;90.18;45.75;;;;;;;-0.71;100.00;97379.06;5053283;28;20057;-69
2020/12/08 01:19:30;;;;;;;96.72;46.83;;;;;;;-0.66;100.00;97387.44;5053306;28;20143;-69
2020/12/08 01:21:56;;;;;;;88.38;45.08;;;;;;;-0.81;100.00;97391.41;5052356;28;20497;-70
2020/12/08 01:24:22;;;;;;;90.50;43.20;;;;;;;-0.83;100.00;97400.94;5053319;28;20049;-71
2020/12/08 01:26:48;;;;;;;85.97;44.53;;;;;;;-0.77;100.00;97392.16;5052624;28;20510;-71
2020/12/08 01:29:14;;;;;;;87.50;45.35;;;;;;;-0.95;100.00;97396.22;5053165;28;20084;-71
2020/12/08 01:31:40;;;;;;;99.35;46.22;;;;;;;-1.02;100.00;97393.06;5068149;28;20045;-71
2020/12/08 01:34:07;;;;;;;85.28;44.92;;;;;;;-1.05;100.00;97400.88;5052407;28;20045;-70
2020/12/08 01:36:34;;;;;;;95.57;45.67;;;;;;;-1.01;100.00;97411.88;5053284;28;20045;-71
2020/12/08 01:39:00;;;;;;;83.80;43.13;;;;;;;-1.08;100.00;97419.81;5051675;28;20052;-71
2020/12/08 01:41:26;;;;;;;107.65;49.88;;;;;;;-1.02;100.00;97418.78;5053125;28;20371;-71
2020/12/08 01:43:54;;;;;;;87.28;42.95;;;;;;;-0.90;100.00;97414.91;5052731;28;20098;-71
2020/12/08 01:46:23;;;;;;;89.65;46.40;;;;;;;-0.86;100.00;97416.47;5052742;28;20365;-69
2020/12/08 01:48:50;;;;;;;82.68;41.75;;;;;;;-0.87;100.00;97406.25;5052322;28;20124;-69
2020/12/08 01:51:17;;;;;;;83.22;41.67;;;;;;;-1.00;100.00;97398.97;5051850;28;20041;-70
2020/12/08 01:53:46;;;;;;;81.80;41.83;;;;;;;-1.13;99.40;97393.44;5051412;28;20049;-71
2020/12/08 01:56:12;;;;;;;92.97;45.67;;;;;;;-1.05;100.00;97397.44;5052631;28;20049;-70
2020/12/08 01:58:38;;;;;;;82.70;42.22;;;;;;;-1.13;99.78;97392.56;5052450;28;20044;-76
2020/12/08 02:01:04;;;;;;;92.45;44.72;;;;;;;-1.10;100.00;97398.47;5050184;28;20510;-71
2020/12/08 02:03:30;;;;;;;83.03;41.25;;;;;;;-1.03;99.65;97385.41;5043859;28;20127;-69
2020/12/08 02:05:56;;;;;;;86.95;44.15;;;;;;;-1.05;100.00;97394.88;5032178;28;20295;-69
2020/12/08 02:08:30;;;;;;;83.30;43.35;;;;;;;-0.91;99.95;97398.63;5032742;28;20041;-70
2020/12/08 02:10:56;;;;;;;83.05;40.50;;;;;;;-1.06;99.67;97388.06;5034974;28;20041;-70
2020/12/08 02:13:23;;;;;;;81.05;39.78;;;;;;;-1.05;99.07;97387.16;5052565;28;20056;-71
2020/12/08 02:15:49;;;;;;;84.18;41.97;;;;;;;-1.04;99.42;97386.28;5052152;28;20045;-71
2020/12/08 02:18:15;;;;;;;79.45;40.22;;;;;;;-1.15;99.63;97382.34;5051364;28;20133;-71
2020/12/08 02:20:42;;;;;;;77.18;41.10;;;;;;;-1.27;100.00;97369.94;5066912;28;20045;-71
2020/12/08 02:23:08;;;;;;;85.40;42.13;;;;;;;-0.93;98.97;97404.72;5052425;28;20045;-71
2020/12/08 02:25:35;;;;;;;85.20;41.50;;;;;;;-1.17;99.66;97393.59;5052340;28;20045;-71
2020/12/08 02:28:01;;;;;;;83.75;42.67;;;;;;;-1.13;100.00;97408.88;5051738;28;20048;-71
2020/12/08 02:30:26;;;;;;;78.55;41.00;;;;;;;-1.21;99.28;97407.44;5052376;28;20052;-71
2020/12/08 02:32:52;;;;;;;79.70;41.78;;;;;;;-1.23;99.87;97410.06;5051413;28;20044;-71
2020/12/08 02:35:18;;;;;;;78.88;40.20;;;;;;;-1.18;98.91;97408.19;5052009;28;20151;-71
2020/12/08 02:37:46;;;;;;;69.75;38.08;;;;;;;-1.09;98.45;97399.31;5051521;28;20408;-70
2020/12/08 02:40:12;;;;;;;75.40;38.65;;;;;;;-1.13;97.60;97401.16;5052124;28;20048;-70
2020/12/08 02:42:37;;;;;;;77.72;40.05;;;;;;;-1.26;99.09;97407.63;5051787;28;20507;-70
2020/12/08 02:45:03;;;;;;;74.95;39.33;;;;;;;-1.20;98.95;97401.44;5051826;28;20045;-70
2020/12/08 02:47:30;;;;;;;80.00;39.38;;;;;;;-1.31;99.44;97399.22;5052393;28;20048;-70
2020/12/08 02:49:56;;;;;;;72.95;39.10;;;;;;;-1.27;100.00;97413.63;5051629;28;20052;-70
2020/12/08 02:52:22;;;;;;;76.93;37.95;;;;;;;-1.14;98.74;97412.31;5051737;28;20046;-71
2020/12/08 02:54:49;;;;;;;73.90;38.35;;;;;;;-1.17;99.27;97407.28;5066872;28;20044;-71
2020/12/08 02:57:15;;;;;;;76.32;37.13;;;;;;;-1.26;99.39;97405.03;5051905;28;20045;-69
2020/12/08 02:59:41;;;;;;;104.03;47.95;;;;;;;-1.28;100.00;97409.41;5050209;28;20195;-76
2020/12/08 03:02:07;;;;;;;77.10;38.97;;;;;;;-1.20;99.97;97401.44;5051563;28;20110;-70
2020/12/08 03:04:32;;;;;;;81.47;40.65;;;;;;;-1.22;99.98;97414.34;5051530;28;20049;-71
2020/12/08 03:06:59;;;;;;;77.50;39.28;;;;;;;-1.25;99.40;97419.59;5049382;28;20174;-70
2020/12/08 03:09:24;;;;;;;77.57;39.10;;;;;;;-1.33;99.42;97416.44;5051530;28;20140;-70
2020/12/08 03:11:50;;;;;;;70.28;35.65;;;;;;;-1.15;98.37;97418.34;5051429;28;20052;-70
2020/12/08 03:14:16;;;;;;;66.90;36.22;;;;;;;-1.35;98.31;97400.22;5051755;28;20061;-70
2020/12/08 03:16:42;;;;;;;72.07;38.25;;;;;;;-1.28;98.99;97419.69;5051429;28;20132;-75
2020/12/08 03:19:07;;;;;;;78.03;40.40;;;;;;;-1.35;99.33;97421.63;5051797;28;20041;-72
2020/12/08 03:21:35;;;;;;;78.07;38.10;;;;;;;-1.41;99.40;97426.97;5051408;28;20056;-70
2020/12/08 03:24:01;;;;;;;77.38;37.50;;;;;;;-1.26;98.82;97433.31;5051380;28;20048;-70
2020/12/08 03:26:27;;;;;;;76.15;38.05;;;;;;;-1.47;99.04;97422.91;5067239;28;20068;-71
2020/12/08 03:28:54;;;;;;;70.03;35.25;;;;;;;-1.49;99.54;97427.22;5051684;28;20119;-70
2020/12/08 03:31:20;;;;;;;80.13;38.03;;;;;;;-1.50;99.66;97430.72;5055898;28;20045;-70
2020/12/08 03:33:46;;;;;;;84.15;40.05;;;;;;;-1.39;98.65;97435.50;5054934;28;20044;-71
2020/12/08 03:36:19;;;;;;;89.45;41.10;;;;;;;-1.49;99.95;97437.50;5055234;28;20114;-71
2020/12/08 03:38:47;;;;;;;75.07;39.08;;;;;;;-1.43;99.52;97430.50;5070105;28;20098;-72
2020/12/08 03:41:24;;;;;;;76.43;38.03;;;;;;;-1.49;99.65;97432.38;5055502;28;20045;-70
2020/12/08 03:43:50;;;;;;;75.05;38.38;;;;;;;-1.50;99.27;97417.00;5054990;28;20048;-71
2020/12/08 03:46:21;;;;;;;70.78;38.30;;;;;;;-1.54;99.43;97441.16;5055139;28;20526;-71
2020/12/08 03:48:47;;;;;;;74.25;37.47;;;;;;;-1.52;99.28;97436.78;5054648;28;20535;-71
2020/12/08 03:51:17;;;;;;;68.40;37.42;;;;;;;-1.51;98.79;97444.44;5055211;28;20054;-70
2020/12/08 03:53:44;;;;;;;75.20;37.90;;;;;;;-1.55;99.36;97437.72;5053627;28;20041;-75
2020/12/08 03:56:12;;;;;;;67.90;35.92;;;;;;;-1.66;99.57;97439.81;5055048;28;20056;-70
2020/12/08 03:58:38;;;;;;;70.72;38.08;;;;;;;-1.51;98.87;97446.19;5054978;28;20053;-70
2020/12/08 04:01:05;;;;;;;71.43;37.25;;;;;;;-1.62;98.99;97457.66;5054409;28;20041;-70
2020/12/08 04:03:31;;;;;;;69.72;39.00;;;;;;;-1.67;99.95;97446.69;5070420;28;20558;-70
2020/12/08 04:06:04;;;;;;;67.85;36.35;;;;;;;-1.63;98.36;97444.84;5054597;28;20041;-70
2020/12/08 04:08:30;;;;;;;74.93;37.13;;;;;;;-1.64;99.40;97451.75;5054715;28;20086;-70
2020/12/08 04:10:56;;;;;;;66.97;35.40;;;;;;;-1.54;98.67;97454.84;5054394;28;20132;-70
2020/12/08 04:13:22;;;;;;;70.30;37.17;;;;;;;-1.61;99.24;97463.63;5055143;28;20198;-71
2020/12/08 04:15:48;;;;;;;67.97;35.95;;;;;;;-1.59;97.45;97456.72;5053935;28;20037;-70
2020/12/08 04:18:15;;;;;;;64.68;34.83;;;;;;;-1.41;96.92;97465.53;5054722;28;20049;-70
2020/12/08 04:20:42;;;;;;;67.28;34.88;;;;;;;-1.54;97.44;97456.56;5054603;28;20053;-70
2020/12/08 04:23:13;;;;;;;61.63;33.70;;;;;;;-1.51;98.16;97459.03;5054072;28;20052;-70
2020/12/08 04:25:39;;;;;;;73.72;38.22;;;;;;;-1.42;98.31;97445.03;5053387;28;20045;-71
2020/12/08 04:28:06;;;;;;;60.40;32.92;;;;;;;-1.35;96.00;97446.50;5053941;28;20126;-70
2020/12/08 04:30:33;;;;;;;65.25;34.05;;;;;;;-1.50;97.10;97450.41;5054350;28;20099;-71
2020/12/08 04:33:00;;;;;;;69.65;37.08;;;;;;;-1.53;99.14;97442.81;5053635;28;20053;-69
2020/12/08 04:35:26;;;;;;;70.97;38.42;;;;;;;-1.46;100.00;97436.59;5054438;28;20068;-70
2020/12/08 04:37:53;;;;;;;66.75;34.17;;;;;;;-1.57;99.35;97433.53;5053663;28;20419;-71
2020/12/08 04:40:18;;;;;;;60.95;33.80;;;;;;;-1.51;98.17;97429.03;5053432;28;20484;-71
2020/12/08 04:42:48;;;;;;;61.00;31.58;;;;;;;-1.71;98.34;97426.28;5054163;28;20047;-70
2020/12/08 04:45:15;;;;;;;63.85;33.80;;;;;;;-1.73;98.24;97444.31;5054143;28;20533;-71
2020/12/08 04:47:43;;;;;;;69.30;38.00;;;;;;;-1.77;98.78;97445.31;5054269;28;20253;-71
2020/12/08 04:50:11;;;;;;;62.22;33.95;;;;;;;-1.91;99.74;97439.78;5053857;28;20053;-71
2020/12/08 04:52:37;;;;;;;72.20;35.70;;;;;;;-1.92;99.43;97438.91;5052920;28;20051;-70
2020/12/08 04:55:04;;;;;;;64.78;34.50;;;;;;;-1.95;100.00;97444.16;5052515;28;20160;-70
2020/12/08 04:57:30;;;;;;;69.13;35.95;;;;;;;-1.94;99.32;97461.25;5053801;28;20052;-71
2020/12/08 05:00:08;;;;;;;63.65;33.35;;;;;;;-1.85;98.44;97450.69;5053371;28;20056;-70
2020/12/08 05:02:54;;;;;;;61.38;31.63;;;;;;;-2.04;99.05;97432.47;5053747;28;20046;-71
2020/12/08 05:05:21;;;;;;;73.95;37.05;;;;;;;-1.96;99.03;97444.19;5052751;28;20112;-71
2020/12/08 05:07:47;;;;;;;74.78;36.58;;;;;;;-2.31;99.91;97448.72;5053663;28;20436;-75
2020/12/08 05:10:14;;;;;;;72.07;35.38;;;;;;;-2.09;99.92;97454.88;5051879;28;20432;-71
2020/12/08 05:12:40;;;;;;;77.75;38.97;;;;;;;-2.26;100.00;97459.69;5053575;28;20049;-70
2020/12/08 05:15:15;;;;;;;68.38;34.72;;;;;;;-2.12;99.73;97459.25;5052106;28;20045;-71
2020/12/08 05:17:41;;;;;;;75.63;35.28;;;;;;;-2.34;100.00;97455.59;5052415;28;20049;-69
2020/12/08 05:20:10;;;;;;;72.47;37.35;;;;;;;-2.42;100.00;97455.00;5053198;28;20068;-70
2020/12/08 05:22:37;;;;;;;74.32;35.63;;;;;;;-2.36;100.00;97466.84;5053244;28;20045;-72
2020/12/08 05:25:10;;;;;;;74.00;38.10;;;;;;;-2.41;100.00;97463.53;5047779;28;20056;-70
2020/12/08 05:27:36;;;;;;;76.25;36.15;;;;;;;-2.42;100.00;97454.19;5052368;28;20510;-69
2020/12/08 05:30:09;;;;;;;69.80;34.85;;;;;;;-2.53;100.00;97462.19;5052236;28;20072;-69
2020/12/08 05:32:39;;;;;;;90.22;41.20;;;;;;;-2.50;100.00;97466.38;5053080;28;20399;-69
2020/12/08 05:35:11;;;;;;;73.78;37.53;;;;;;;-2.39;100.00;97474.63;5051563;28;20132;-71
2020/12/08 05:37:45;;;;;;;76.13;35.65;;;;;;;-2.50;100.00;97474.06;5053301;28;20374;-69
2020/12/08 05:40:16;;;;;;;71.68;35.42;;;;;;;-2.53;100.00;97472.47;5052525;28;20106;-71
2020/12/08 05:42:44;;;;;;;74.35;37.47;;;;;;;-2.58;100.00;97462.31;5052723;28;20118;-70
2020/12/08 05:45:12;;;;;;;78.72;36.50;;;;;;;-2.52;100.00;97474.13;5051515;28;20651;-71
2020/12/08 05:48:04;;;;;;;70.63;37.30;;;;;;;-2.55;100.00;97469.06;5052827;28;20060;-71
2020/12/08 05:50:30;;;;;;;65.00;34.23;;;;;;;-2.40;100.00;97476.31;5052682;28;20052;-70
2020/12/08 05:52:59;;;;;;;65.35;33.67;;;;;;;-2.53;100.00;97483.56;5052433;28;20110;-71
2020/12/08 05:55:28;;;;;;;70.40;34.90;;;;;;;-2.62;100.00;97470.16;5052852;28;20080;-70
2020/12/08 05:58:06;;;;;;;73.25;37.20;;;;;;;-2.44;99.41;97476.47;5051952;28;20227;-70
2020/12/08 06:00:34;;;;;;;68.65;34.40;;;;;;;-2.67;100.00;97474.56;5052911;28;20518;-69
2020/12/08 06:03:11;;;;;;;66.22;33.38;;;;;;;-2.75;100.00;97487.59;5067363;28;20539;-71
2020/12/08 06:05:38;;;;;;;73.18;37.30;;;;;;;-2.70;100.00;97485.78;5052813;28;20041;-71
2020/12/08 06:08:19;;;;;;;67.53;35.03;;;;;;;-2.57;99.65;97486.25;5052638;28;20052;-69
2020/12/08 06:10:55;;;;;;;70.63;35.45;;;;;;;-2.72;99.96;97482.38;5052735;28;20132;-71
2020/12/08 06:13:29;;;;;;;77.28;38.10;;;;;;;-2.53;99.39;97493.81;5038994;28;20051;-70
2020/12/08 06:15:57;;;;;;;77.82;37.97;;;;;;;-2.67;100.00;97495.94;5049461;28;20045;-76
2020/12/08 06:18:34;;;;;;;69.90;34.65;;;;;;;-2.71;100.00;97499.47;5067246;28;20048;-74
2020/12/08 06:21:02;;;;;;;75.38;37.50;;;;;;;-2.78;100.00;97506.50;5051196;28;20507;-75
2020/12/08 06:23:28;;;;;;;83.20;40.25;;;;;;;-2.75;100.00;97513.25;5052107;28;20049;-75
2020/12/08 06:26:01;;;;;;;82.30;39.83;;;;;;;-2.79;100.00;97506.53;5051500;28;20049;-75
2020/12/08 06:28:28;;;;;;;78.65;38.40;;;;;;;-2.60;99.91;97497.44;5052958;28;20136;-73
2020/12/08 06:31:04;;;;;;;75.50;37.95;;;;;;;-2.53;99.95;97504.09;5051072;28;20056;-75
2020/12/08 06:33:31;;;;;;;73.95;35.20;;;;;;;-2.61;98.79;97503.47;5051879;28;20392;-74
2020/12/08 06:36:01;;;;;;;79.55;38.75;;;;;;;-2.64;100.00;97518.09;5066173;28;20385;-73
2020/12/08 06:38:27;;;;;;;81.05;37.38;;;;;;;-2.61;100.00;97515.44;5051690;28;20041;-73
2020/12/08 06:40:54;;;;;;;82.07;40.05;;;;;;;-2.64;100.00;97521.50;5051984;28;20400;-75
2020/12/08 06:43:21;;;;;;;75.55;38.60;;;;;;;-2.61;100.00;97500.91;5051501;28;20041;-76
2020/12/08 06:45:48;;;;;;;75.28;38.22;;;;;;;-2.37;99.91;97519.03;5049827;28;20040;-73
2020/12/08 06:48:19;;;;;;;78.80;37.88;;;;;;;-2.46;99.21;97524.44;5051020;28;20077;-76
2020/12/08 06:50:46;;;;;;;75.22;36.22;;;;;;;-2.29;98.78;97522.22;5051322;28;20488;-73
2020/12/08 06:53:13;;;;;;;72.65;35.75;;;;;;;-2.56;99.61;97534.97;5050781;28;20084;-73
2020/12/08 06:55:44;;;;;;;72.47;36.75;;;;;;;-2.43;99.41;97537.19;5050336;28;20077;-73
2020/12/08 06:58:10;;;;;;;76.47;37.33;;;;;;;-2.53;100.00;97557.97;5050795;28;20056;-74
2020/12/08 07:00:36;;;;;;;70.82;35.80;;;;;;;-2.42;99.16;97564.53;5051001;28;20049;-73
2020/12/08 07:03:03;;;;;;;76.00;37.83;;;;;;;-2.45;99.74;97552.63;5050143;28;20049;-72
2020/12/08 07:05:31;;;;;;;73.88;37.20;;;;;;;-2.29;99.10;97557.34;5049952;28;20048;-75
2020/12/08 07:08:08;;;;;;;75.32;36.10;;;;;;;-2.12;98.98;97555.09;5050357;28;20064;-76
2020/12/08 07:10:38;;;;;;;76.00;37.92;;;;;;;-2.13;98.85;97553.44;5051511;28;20037;-73
2020/12/08 07:13:14;;;;;;;85.15;38.30;;;;;;;-2.23;99.91;97567.44;5048888;28;20052;-75
2020/12/08 07:15:41;;;;;;;75.70;35.53;;;;;;;-2.27;99.97;97550.41;5050507;28;20076;-74
2020/12/08 07:18:08;;;;;;;75.22;37.55;;;;;;;-2.11;99.07;97555.97;5050220;28;20187;-76
2020/12/08 07:20:35;;;;;;;69.68;36.40;;;;;;;-2.02;97.83;97548.00;5051447;28;20041;-76
2020/12/08 07:23:05;;;;;;;74.80;37.78;;;;;;;-1.96;98.54;97555.53;5050440;28;20041;-74
2020/12/08 07:25:32;;;;;;;71.75;35.17;;;;;;;-2.02;98.03;97559.09;5051437;28;20068;-73
2020/12/08 07:27:59;;;;;;;69.55;35.65;;;;;;;-1.99;99.29;97553.03;5049347;28;20053;-75
2020/12/08 07:30:27;;;;;;;65.70;34.75;;;;;;;-1.95;98.12;97553.78;5050187;28;20056;-73
2020/12/08 07:32:54;;;;;;;78.07;35.38;;;;;;;-1.84;97.60;97564.56;5050736;28;20048;-72
2020/12/08 07:35:29;;;;;;;68.80;34.40;;;;;;;-1.80;97.60;97568.72;5049983;28;20057;-73
2020/12/08 07:37:58;;;;;;;72.85;36.03;;;;;;;-1.88;96.96;97568.97;5051250;28;20491;-76
2020/12/08 07:40:35;;;;;;;77.72;37.97;;;;;;;-1.72;97.50;97559.06;5050606;28;20458;-74
2020/12/08 07:43:02;;;;;;;69.78;35.33;;;;;;;-1.70;97.71;97575.28;5049923;28;20547;-75
2020/12/08 07:45:33;;;;;;;69.70;34.88;;;;;;;-1.75;96.29;97573.72;5050904;28;20045;-73
2020/12/08 07:48:00;;;;;;;71.90;36.08;;;;;;;-1.86;97.35;97559.47;5050186;28;20076;-78
2020/12/08 07:50:28;;;;;;;85.88;39.05;;;;;;;-1.71;97.98;97577.91;5049942;28;20499;-75
2020/12/08 07:52:58;;;;;;;83.45;39.22;;;;;;;-1.58;96.69;97575.78;5051107;28;20061;-74
2020/12/08 07:55:24;;;;;;;73.72;38.67;;;;;;;-1.56;94.63;97580.00;5050788;28;20041;-74
2020/12/08 07:57:50;;;;;;;83.45;40.45;;;;;;;-1.67;96.61;97577.75;5066111;28;20047;-74
2020/12/08 08:00:17;;;;;;;84.25;41.50;;;;;;;-1.73;97.50;97587.38;5048828;28;20898;-74
2020/12/08 08:02:43;;;;;;;107.45;47.85;;;;;;;-1.83;98.08;97590.22;5051375;28;20037;-71
2020/12/08 08:05:08;;;;;;;100.05;47.38;;;;;;;-1.69;97.92;97583.81;5050213;28;20072;-74
2020/12/08 08:07:34;;;;;;;124.05;48.30;;;;;;;-1.72;97.41;97592.47;5050327;28;20086;-74
2020/12/08 08:10:00;;;;;;;130.50;50.40;;;;;;;-1.79;97.68;97583.28;5050034;28;20040;-78
2020/12/08 08:12:26;;;;;;;165.88;59.00;;;;;;;-1.55;96.43;97579.09;5050570;28;20059;-75
2020/12/08 08:14:52;;;;;;;135.60;52.38;;;;;;;-1.37;96.55;97577.69;5050630;28;20041;-73
2020/12/08 08:17:17;;;;;;;86.38;42.10;;;;;;;-1.47;95.34;97584.00;5067895;28;20048;-74
2020/12/08 08:19:43;;;;;;;157.75;58.30;;;;;;;-1.62;95.78;97587.91;5053646;28;20045;-73
2020/12/08 08:22:09;;;;;;;187.85;68.95;;;;;;;-1.57;97.88;97585.19;5053547;28;20072;-72
2020/12/08 08:24:35;;;;;;;91.25;43.35;;;;;;;-1.42;94.93;97577.00;5054182;28;20048;-72
2020/12/08 08:27:01;;;;;;;91.43;45.60;;;;;;;-1.43;96.20;97582.19;5053943;28;20442;-75
2020/12/08 08:29:26;;;;;;;100.75;47.85;;;;;;;-1.31;96.02;97574.09;5053987;28;20127;-73
2020/12/08 08:31:52;;;;;;;104.88;48.92;;;;;;;-1.21;94.93;97584.91;5054033;28;20055;-73
2020/12/08 08:34:18;;;;;;;96.95;46.53;;;;;;;-1.19;94.74;97585.69;5052938;28;20045;-73
2020/12/08 08:36:51;;;;;;;99.28;48.95;;;;;;;-1.12;96.07;97590.59;5053805;28;20049;-73
2020/12/08 08:39:17;;;;;;;104.18;49.22;;;;;;;-1.06;95.36;97588.72;5032075;28;20393;-73
2020/12/08 08:41:45;;;;;;;101.20;47.08;;;;;;;-1.14;96.74;97583.81;5034118;28;20087;-75
2020/12/08 08:44:11;;;;;;;89.57;43.97;;;;;;;-1.30;96.83;97578.31;5032549;28;20050;-75
2020/12/08 08:46:41;;;;;;;94.90;44.58;;;;;;;-1.06;94.92;97593.88;5033628;28;20061;-74
2020/12/08 08:49:08;;;;;;;94.38;43.05;;;;;;;-1.20;96.47;97584.03;5032890;28;20045;-73
2020/12/08 08:51:35;;;;;;;97.53;45.15;;;;;;;-1.17;96.66;97594.22;5049069;28;20096;-74
2020/12/08 08:54:01;;;;;;;93.57;46.45;;;;;;;-0.98;95.69;97597.03;5033677;28;20051;-73
2020/12/08 08:56:26;;;;;;;83.32;42.78;;;;;;;-1.11;94.99;97597.41;5016167;28;20053;-70
2020/12/08 08:58:52;;;;;;;90.53;43.17;;;;;;;-1.15;94.77;97590.69;5033653;28;20041;-70
2020/12/08 09:01:18;;;;;;;99.88;47.40;;;;;;;-1.18;96.05;97589.94;5032460;28;20068;-70
2020/12/08 09:03:45;;;;;;;96.78;47.97;;;;;;;-1.09;97.66;97595.63;5033212;28;20041;-73
2020/12/08 09:06:12;;;;;;;95.72;46.40;;;;;;;-1.06;96.19;97592.13;5043378;28;20063;-72
2020/12/08 09:08:38;;;;;;;96.93;47.38;;;;;;;-0.89;95.68;97573.56;5053875;28;20053;-71
2020/12/08 09:11:04;;;;;;;103.85;48.72;;;;;;;-0.96;96.49;97574.63;5051769;28;20056;-73
2020/12/08 09:13:30;;;;;;;96.90;45.67;;;;;;;-0.80;94.50;97586.09;5052589;28;20068;-70
2020/12/08 09:15:56;;;;;;;89.80;45.85;;;;;;;-0.85;93.03;97590.59;5048584;28;20049;-71
2020/12/08 09:18:22;;;;;;;92.40;44.83;;;;;;;-0.79;94.20;97589.50;5068278;28;20045;-70
2020/12/08 09:20:48;;;;;;;88.28;44.45;;;;;;;-0.72;94.03;97612.41;5053702;28;20052;-70
2020/12/08 09:23:13;;;;;;;92.45;45.63;;;;;;;-0.68;95.30;97584.84;5051819;28;20045;-73
2020/12/08 09:25:40;;;;;;;86.03;43.15;;;;;;;-0.47;92.46;97572.13;5052940;28;20079;-71
2020/12/08 09:28:05;;;;;;;86.53;42.92;;;;;;;-0.61;92.17;97588.06;5050861;28;20060;-74
2020/12/08 09:30:31;;;;;;;84.13;43.10;;;;;;;-0.76;92.92;97594.56;5051864;28;20128;-71
2020/12/08 09:32:57;;;;;;;91.35;46.65;;;;;;;-0.78;94.69;97609.22;5052728;28;20048;-70
2020/12/08 09:35:23;;;;;;;98.63;48.13;;;;;;;-0.76;95.82;97608.28;5051867;28;20602;-72
2020/12/08 09:37:49;;;;;;;89.95;44.95;;;;;;;-0.86;95.78;97599.19;5052565;28;20107;-72
2020/12/08 09:40:15;;;;;;;87.95;45.00;;;;;;;-0.72;93.80;97591.81;5052209;28;20041;-71
2020/12/08 09:42:44;;;;;;;86.40;43.42;;;;;;;-0.41;92.03;97595.91;5052555;28;20045;-73
2020/12/08 09:45:11;;;;;;;82.63;42.40;;;;;;;-0.59;93.12;97593.97;5051327;28;20064;-76
2020/12/08 09:47:37;;;;;;;89.88;45.47;;;;;;;-0.36;93.35;97588.03;5052880;28;20064;-73
2020/12/08 09:50:05;;;;;;;81.40;40.83;;;;;;;-0.28;91.36;97585.16;5052389;28;20468;-74
2020/12/08 09:52:31;;;;;;;98.38;47.17;;;;;;;-0.17;91.92;97572.75;5052310;28;20049;-73
2020/12/08 09:54:58;;;;;;;86.72;43.30;;;;;;;-0.22;92.21;97569.50;5052558;28;20464;-72
2020/12/08 09:57:24;;;;;;;92.85;46.45;;;;;;;-0.13;92.38;97571.72;5051676;28;20194;-72
2020/12/08 09:59:51;;;;;;;78.53;44.03;;;;;;;-0.15;93.17;97567.56;5053011;28;20041;-73
2020/12/08 10:02:19;;;;;;;79.43;41.83;;;;;;;0.05;90.38;97554.75;5050812;28;20056;-73
2020/12/08 10:04:45;;;;;;;78.30;41.25;;;;;;;-0.09;91.10;97572.47;5052232;28;20451;-69
2020/12/08 10:07:14;;;;;;;85.15;43.40;;;;;;;-0.13;91.38;97571.72;5051949;28;20048;-71
2020/12/08 10:09:47;;;;;;;78.80;41.05;;;;;;;-0.08;90.45;97574.13;5035368;28;20052;-71
2020/12/08 10:12:14;;;;;;;81.55;42.25;;;;;;;-0.15;90.33;97567.56;5051091;28;20053;-71
2020/12/08 10:14:43;;;;;;;74.95;42.15;;;;;;;-0.01;90.68;97581.59;5052163;28;20045;-70
2020/12/08 10:17:13;;;;;;;82.22;41.83;;;;;;;0.21;89.27;97590.25;5032111;28;20053;-72
2020/12/08 10:19:40;;;;;;;74.68;40.72;;;;;;;0.23;89.07;97598.75;5047307;28;20045;-72
2020/12/08 10:22:06;;;;;;;77.18;42.35;;;;;;;0.03;90.50;97591.78;5031476;28;20053;-74
2020/12/08 10:24:33;;;;;;;83.93;43.67;;;;;;;-0.09;92.46;97588.78;5031510;28;20060;-70
2020/12/08 10:26:58;;;;;;;81.45;44.25;;;;;;;0.09;91.85;97597.53;5048204;28;20048;-70
2020/12/08 10:29:24;;;;;;;78.25;43.17;;;;;;;0.12;90.59;97592.28;5051064;28;20805;-70
2020/12/08 10:31:51;;;;;;;78.13;42.28;;;;;;;0.20;90.94;97599.72;5051592;28;20338;-70
2020/12/08 10:34:18;;;;;;;75.15;39.63;;;;;;;0.41;89.11;97592.91;5050215;28;20045;-71
2020/12/08 10:36:45;;;;;;;74.97;40.90;;;;;;;0.37;92.20;97596.50;5051594;28;20076;-68
2020/12/08 10:39:12;;;;;;;69.53;38.22;;;;;;;0.56;88.59;97590.63;5033347;28;20055;-70
2020/12/08 10:41:38;;;;;;;74.90;40.50;;;;;;;0.57;91.38;97600.06;5051396;28;20396;-70
2020/12/08 10:44:06;;;;;;;76.68;40.97;;;;;;;0.58;92.20;97600.00;5051360;28;20045;-70
2020/12/08 10:46:38;;;;;;;71.75;39.88;;;;;;;0.49;89.61;97603.75;5049990;28;20110;-70
2020/12/08 10:49:05;;;;;;;80.10;41.60;;;;;;;0.48;91.31;97594.34;5052005;28;20049;-70
2020/12/08 10:51:31;;;;;;;78.18;42.28;;;;;;;0.78;89.91;97593.22;5051007;28;20073;-70
2020/12/08 10:53:57;;;;;;;77.45;42.05;;;;;;;0.76;90.16;97593.28;5051506;28;20056;-70
2020/12/08 10:56:23;;;;;;;73.40;40.70;;;;;;;0.71;91.53;97590.88;5050729;28;20041;-70
2020/12/08 10:58:50;;;;;;;74.57;41.65;;;;;;;0.90;90.34;97595.28;5050318;28;20408;-70
2020/12/08 11:01:23;;;;;;;68.55;37.85;;;;;;;0.80;88.27;97593.97;5050635;28;20465;-70
2020/12/08 11:03:50;;;;;;;67.45;37.60;;;;;;;0.88;87.57;97592.78;5050888;28;20094;-72
2020/12/08 11:06:24;;;;;;;75.90;40.85;;;;;;;0.98;88.70;97588.06;5050981;28;20053;-73
2020/12/08 11:08:52;;;;;;;65.50;38.13;;;;;;;1.14;88.55;97590.84;5052090;28;20041;-72
2020/12/08 11:11:25;;;;;;;67.80;37.22;;;;;;;1.18;87.14;97570.94;5051609;28;20048;-70
2020/12/08 11:13:52;;;;;;;67.03;37.30;;;;;;;1.44;87.53;97582.72;5050517;28;20048;-73
2020/12/08 11:16:18;;;;;;;63.90;35.20;;;;;;;1.27;85.71;97572.25;5051413;28;20120;-71